Time;durP1;ratioP1;P1;durP2;ratioP2;P2;SDS_P1;SDS_P2;PMS_P1;PMS_P2;Temp;Humidity;BMP_temperature;BMP_pressure;BME280_temperature;BME280_humidity;BME280_pressure;Samples;Min_cycle;Max_cycle;Signal;HPM_P1;HPM_P2
2022/09/23 00:01:42;;;;;;;4.93;2.33;;;;;;;;;;5091485;28;20036;-64
2022/09/23 00:04:08;;;;;;;6.20;2.72;;;;;;;;;;5079001;28;20032;-61
2022/09/23 00:06:34;;;;;;;4.93;2.60;;;;;;;;;;5068511;28;20059;-66
2022/09/23 00:09:00;;;;;;;4.93;2.65;;;;;;;;;;5053375;28;20090;-60
2022/09/23 00:11:27;;;;;;;2.75;2.30;;;;;;;;;;5055618;28;20078;-65
2022/09/23 00:13:56;;;;;;;6.63;2.33;;;;;;;;;;5053860;28;20036;-62
2022/09/23 00:16:25;;;;;;;4.50;2.70;;;;;;;;;;5053596;28;20035;-63
2022/09/23 00:18:51;;;;;;;5.95;2.58;;;;;;;;;;5053695;28;20037;-62
2022/09/23 00:21:19;;;;;;;5.57;2.28;;;;;;;;;;5053659;28;20032;-60
2022/09/23 00:23:45;;;;;;;9.85;2.42;;;;;;;;;;5053953;28;20387;-63
2022/09/23 00:26:14;;;;;;;2.60;1.98;;;;;;;;;;5059178;28;20020;-60
2022/09/23 00:28:41;;;;;;;3.33;2.15;;;;;;;;;;5073197;28;20047;-62
2022/09/23 00:31:10;;;;;;;3.30;1.92;;;;;;;;;;5073335;28;20028;-62
2022/09/23 00:33:36;;;;;;;4.00;2.10;;;;;;;;;;5073100;28;20067;-61
2022/09/23 00:36:04;;;;;;;4.13;2.25;;;;;;;;;;5073127;28;20033;-61
2022/09/23 00:38:30;;;;;;;2.50;1.90;;;;;;;;;;5073097;28;20044;-60
2022/09/23 00:40:57;;;;;;;5.32;2.05;;;;;;;;;;5072959;28;20024;-60
2022/09/23 00:43:45;;;;;;;3.00;2.13;;;;;;;;;;5072947;28;20037;-62
2022/09/23 00:46:33;;;;;;;6.38;1.98;;;;;;;;;;5073186;28;20044;-61
2022/09/23 00:49:03;;;;;;;6.70;2.30;;;;;;;;;;5071869;28;20570;-62
2022/09/23 00:51:33;;;;;;;5.10;2.75;;;;;;;;;;5072826;28;20028;-62
2022/09/23 00:54:01;;;;;;;3.40;2.40;;;;;;;;;;5072610;28;20111;-62
2022/09/23 00:56:26;;;;;;;3.85;2.10;;;;;;;;;;5072902;28;20021;-63
2022/09/23 00:58:53;;;;;;;7.20;2.67;;;;;;;;;;5072926;28;20029;-61
2022/09/23 01:01:20;;;;;;;3.33;2.30;;;;;;;;;;5072871;28;20115;-60
2022/09/23 01:03:46;;;;;;;4.10;2.42;;;;;;;;;;5072878;28;20046;-61
2022/09/23 01:06:13;;;;;;;7.15;2.60;;;;;;;;;;5072474;28;20056;-61
2022/09/23 01:08:41;;;;;;;3.88;2.15;;;;;;;;;;5072197;28;20036;-61
2022/09/23 01:11:41;;;;;;;3.88;2.55;;;;;;;;;;5072287;28;20104;-61
2022/09/23 01:14:36;;;;;;;3.03;2.33;;;;;;;;;;5072279;28;20483;-62
2022/09/23 01:17:43;;;;;;;3.00;2.28;;;;;;;;;;5072584;28;20033;-61
2022/09/23 01:20:14;;;;;;;3.17;2.35;;;;;;;;;;5072014;28;20565;-62
2022/09/23 01:22:48;;;;;;;4.15;2.30;;;;;;;;;;5053852;28;20416;-60
2022/09/23 01:25:20;;;;;;;3.10;2.30;;;;;;;;;;5051978;28;20044;-65
2022/09/23 01:27:49;;;;;;;3.10;2.17;;;;;;;;;;5052341;28;20047;-62
2022/09/23 01:30:37;;;;;;;4.75;2.47;;;;;;;;;;5052024;28;20025;-64
2022/09/23 01:33:33;;;;;;;3.47;2.30;;;;;;;;;;5051987;28;20056;-61
2022/09/23 01:36:09;;;;;;;2.50;1.90;;;;;;;;;;5051819;28;20045;-61
2022/09/23 01:38:39;;;;;;;4.72;2.38;;;;;;;;;;5052417;28;20033;-65
2022/09/23 01:41:23;;;;;;;5.60;2.72;;;;;;;;;;5053470;28;20162;-63
2022/09/23 01:44:04;;;;;;;7.35;2.50;;;;;;;;;;5059969;28;20036;-64
2022/09/23 01:46:56;;;;;;;4.15;2.58;;;;;;;;;;5070543;28;20119;-66
2022/09/23 01:49:42;;;;;;;4.68;2.67;;;;;;;;;;5072048;28;20111;-62
2022/09/23 01:52:32;;;;;;;4.40;2.40;;;;;;;;;;5071893;28;20028;-61
2022/09/23 01:55:14;;;;;;;4.18;2.80;;;;;;;;;;5071958;28;20033;-61
2022/09/23 01:57:43;;;;;;;4.15;2.20;;;;;;;;;;5071996;28;20360;-61
2022/09/23 02:00:16;;;;;;;7.50;2.70;;;;;;;;;;5071680;28;20044;-62
2022/09/23 02:02:56;;;;;;;4.35;2.38;;;;;;;;;;5071746;28;20040;-61
2022/09/23 02:05:33;;;;;;;3.50;2.38;;;;;;;;;;5071950;28;20086;-61
2022/09/23 02:08:15;;;;;;;5.35;2.35;;;;;;;;;;5071897;28;20078;-64
2022/09/23 02:10:44;;;;;;;3.53;2.58;;;;;;;;;;5071784;28;20490;-59
2022/09/23 02:13:19;;;;;;;3.55;2.40;;;;;;;;;;5072058;28;20483;-59
2022/09/23 02:15:59;;;;;;;3.55;2.70;;;;;;;;;;5071950;28;20116;-60
2022/09/23 02:18:52;;;;;;;5.55;2.70;;;;;;;;;;5071305;28;20040;-59
2022/09/23 02:21:20;;;;;;;5.50;2.85;;;;;;;;;;5071810;28;20040;-61
2022/09/23 02:23:53;;;;;;;8.80;3.03;;;;;;;;;;5071759;28;20024;-61
2022/09/23 02:26:24;;;;;;;3.20;2.33;;;;;;;;;;5071577;28;20039;-62
2022/09/23 02:29:15;;;;;;;5.05;2.45;;;;;;;;;;5071701;28;20036;-61
2022/09/23 02:31:55;;;;;;;4.82;2.80;;;;;;;;;;5070710;28;20115;-62
2022/09/23 02:34:29;;;;;;;6.85;3.40;;;;;;;;;;5071089;28;20047;-62
2022/09/23 02:37:30;;;;;;;4.82;2.83;;;;;;;;;;5070871;28;20482;-63
2022/09/23 02:40:22;;;;;;;5.47;2.83;;;;;;;;;;5065018;28;20112;-64
2022/09/23 02:43:13;;;;;;;8.95;2.95;;;;;;;;;;5075840;28;20356;-63
2022/09/23 02:45:39;;;;;;;5.00;2.50;;;;;;;;;;5075964;28;20028;-61
2022/09/23 02:48:17;;;;;;;3.83;2.85;;;;;;;;;;5075042;28;20127;-63
2022/09/23 02:50:43;;;;;;;7.55;3.22;;;;;;;;;;5075916;28;20028;-63
2022/09/23 02:53:09;;;;;;;8.05;2.78;;;;;;;;;;5076148;28;20439;-64
2022/09/23 02:55:35;;;;;;;6.25;2.65;;;;;;;;;;5075307;28;20029;-65
2022/09/23 02:58:04;;;;;;;5.53;2.80;;;;;;;;;;5074855;28;20352;-62
2022/09/23 03:01:29;;;;;;;5.78;2.65;;;;;;;;;;5075836;28;20298;-67
2022/09/23 03:04:03;;;;;;;;;;;;;;;;;;5054363;28;20037;-66
2022/09/23 03:06:43;;;;;;;4.38;2.60;;;;;;;;;;5053811;28;19999;-60
2022/09/23 03:09:30;;;;;;;3.92;2.78;;;;;;;;;;5070506;28;20048;-64
2022/09/23 03:12:24;;;;;;;4.50;2.75;;;;;;;;;;5075931;28;20491;-61
2022/09/23 03:15:15;;;;;;;4.53;2.53;;;;;;;;;;5075685;28;20052;-61
2022/09/23 03:18:12;;;;;;;5.90;3.15;;;;;;;;;;5075410;28;20032;-61
2022/09/23 03:20:51;;;;;;;5.53;2.63;;;;;;;;;;5075386;28;20111;-61
2022/09/23 03:23:24;;;;;;;4.90;2.63;;;;;;;;;;5075648;28;20039;-61
2022/09/23 03:25:53;;;;;;;8.10;2.60;;;;;;;;;;5075583;28;20032;-61
2022/09/23 03:28:20;;;;;;;6.10;2.65;;;;;;;;;;5075668;28;20074;-59
2022/09/23 03:30:49;;;;;;;6.28;3.10;;;;;;;;;;5075266;28;20040;-61
2022/09/23 03:33:18;;;;;;;5.70;2.95;;;;;;;;;;5075099;28;20037;-61
2022/09/23 03:38:51;;;;;;;6.30;2.58;;;;;;;;;;5075099;28;20060;-61
2022/09/23 03:41:28;;;;;;;6.30;2.83;;;;;;;;;;5074685;28;20035;-61
2022/09/23 03:43:57;;;;;;;9.35;3.05;;;;;;;;;;5075209;28;20033;-60
2022/09/23 03:46:28;;;;;;;13.20;4.10;;;;;;;;;;5074136;28;20031;-62
2022/09/23 03:49:04;;;;;;;8.18;3.88;;;;;;;;;;5075140;28;20025;-61
2022/09/23 03:51:30;;;;;;;8.20;3.45;;;;;;;;;;5074753;28;20117;-61
2022/09/23 03:53:55;;;;;;;5.15;2.78;;;;;;;;;;5074929;28;20078;-61
2022/09/23 03:56:21;;;;;;;7.88;2.80;;;;;;;;;;5071763;28;20081;-61
2022/09/23 03:58:47;;;;;;;7.70;2.70;;;;;;;;;;5055124;28;20372;-61
2022/09/23 04:01:13;;;;;;;9.60;3.33;;;;;;;;;;5072752;28;20113;-61
2022/09/23 04:03:40;;;;;;;11.65;3.50;;;;;;;;;;5068224;28;20087;-62
2022/09/23 04:06:06;;;;;;;7.78;2.83;;;;;;;;;;5054611;28;20021;-62
2022/09/23 04:08:31;;;;;;;4.28;3.15;;;;;;;;;;5054751;28;20027;-60
2022/09/23 04:11:00;;;;;;;6.55;3.47;;;;;;;;;;5062368;28;20108;-61
2022/09/23 04:13:27;;;;;;;9.05;3.53;;;;;;;;;;5064566;28;20024;-61
2022/09/23 04:15:53;;;;;;;10.38;3.90;;;;;;;;;;5062115;28;20024;-61
2022/09/23 04:18:20;;;;;;;7.80;3.53;;;;;;;;;;5068923;28;20032;-63
2022/09/23 04:20:46;;;;;;;8.63;3.35;;;;;;;;;;5075305;28;20036;-62
2022/09/23 04:23:12;;;;;;;14.55;5.00;;;;;;;;;;5073410;28;20440;-62
2022/09/23 04:25:47;;;;;;;6.90;3.63;;;;;;;;;;5054327;28;20067;-61
2022/09/23 04:28:14;;;;;;;7.72;3.25;;;;;;;;;;5054191;28;20090;-62
2022/09/23 04:30:42;;;;;;;8.85;3.20;;;;;;;;;;5053973;28;20029;-62
2022/09/23 04:33:10;;;;;;;8.65;3.47;;;;;;;;;;5063177;28;20080;-60
2022/09/23 04:35:37;;;;;;;8.45;3.53;;;;;;;;;;5062777;28;20029;-61
2022/09/23 04:38:04;;;;;;;8.75;3.75;;;;;;;;;;5063326;28;20033;-61
2022/09/23 04:40:30;;;;;;;9.95;3.83;;;;;;;;;;5063087;28;20056;-60
2022/09/23 04:42:56;;;;;;;16.83;3.40;;;;;;;;;;5063379;28;20056;-61
2022/09/23 04:45:22;;;;;;;10.30;3.75;;;;;;;;;;5061380;28;20328;-61
2022/09/23 04:47:48;;;;;;;13.60;5.35;;;;;;;;;;5063459;28;20043;-61
2022/09/23 04:50:14;;;;;;;9.20;4.47;;;;;;;;;;5063388;28;20029;-60
2022/09/23 04:52:41;;;;;;;16.88;4.18;;;;;;;;;;5062140;28;20036;-60
2022/09/23 04:55:08;;;;;;;9.45;3.70;;;;;;;;;;5063559;28;20053;-60
2022/09/23 04:57:34;;;;;;;12.68;3.80;;;;;;;;;;5063332;28;20044;-60
2022/09/23 05:00:00;;;;;;;10.35;4.00;;;;;;;;;;5061560;28;20021;-61
2022/09/23 05:02:27;;;;;;;8.35;3.70;;;;;;;;;;5063264;28;20032;-62
2022/09/23 05:04:53;;;;;;;8.55;3.80;;;;;;;;;;5063043;28;20020;-60
2022/09/23 05:07:19;;;;;;;11.40;4.25;;;;;;;;;;5061482;28;20037;-60
2022/09/23 05:09:45;;;;;;;14.40;4.32;;;;;;;;;;5072799;28;20147;-60
2022/09/23 05:12:11;;;;;;;13.63;3.90;;;;;;;;;;5071772;28;20060;-59
2022/09/23 05:14:40;;;;;;;13.82;4.07;;;;;;;;;;5068373;28;20035;-61
2022/09/23 05:17:05;;;;;;;13.63;3.95;;;;;;;;;;5072106;28;20510;-61
2022/09/23 05:19:31;;;;;;;16.98;4.10;;;;;;;;;;5072330;28;20111;-61
2022/09/23 05:21:57;;;;;;;10.35;4.00;;;;;;;;;;5072143;28;20113;-60
2022/09/23 05:24:23;;;;;;;15.40;3.33;;;;;;;;;;5071740;28;20395;-60
2022/09/23 05:26:50;;;;;;;19.92;4.13;;;;;;;;;;5063854;28;20128;-60
2022/09/23 05:29:16;;;;;;;18.70;4.43;;;;;;;;;;5054663;28;20028;-61
2022/09/23 05:31:42;;;;;;;17.80;3.90;;;;;;;;;;5057762;28;20033;-60
2022/09/23 05:34:08;;;;;;;11.38;4.28;;;;;;;;;;5052420;28;20140;-61
2022/09/23 05:36:35;;;;;;;11.70;3.20;;;;;;;;;;5052124;28;20444;-60
2022/09/23 05:39:02;;;;;;;7.50;2.80;;;;;;;;;;5072346;28;20031;-62
2022/09/23 05:41:28;;;;;;;5.38;3.38;;;;;;;;;;5050326;28;20188;-60
2022/09/23 05:43:55;;;;;;;12.13;3.47;;;;;;;;;;5051972;28;20475;-64
2022/09/23 05:46:26;;;;;;;6.10;3.20;;;;;;;;;;5066351;28;20379;-62
2022/09/23 05:48:54;;;;;;;8.02;3.25;;;;;;;;;;5052179;28;20045;-63
2022/09/23 05:51:22;;;;;;;8.95;3.38;;;;;;;;;;5060354;28;20032;-64
2022/09/23 05:53:51;;;;;;;10.85;3.58;;;;;;;;;;5066329;28;20102;-64
2022/09/23 05:56:20;;;;;;;13.00;3.97;;;;;;;;;;5063405;28;20077;-64
2022/09/23 05:58:50;;;;;;;13.55;3.80;;;;;;;;;;5070811;28;20036;-64
2022/09/23 06:01:23;;;;;;;8.23;3.75;;;;;;;;;;5071998;28;20036;-63
2022/09/23 06:03:50;;;;;;;6.57;3.13;;;;;;;;;;5071511;28;20048;-65
2022/09/23 06:06:18;;;;;;;8.68;3.42;;;;;;;;;;5070746;28;20016;-64
2022/09/23 06:08:45;;;;;;;16.67;3.50;;;;;;;;;;5071895;28;20483;-64
2022/09/23 06:11:12;;;;;;;11.15;3.63;;;;;;;;;;5075044;28;20111;-63
2022/09/23 06:13:39;;;;;;;10.02;3.83;;;;;;;;;;5074406;28;20036;-65
2022/09/23 06:16:06;;;;;;;7.22;3.60;;;;;;;;;;5069077;28;20403;-74
2022/09/23 06:18:33;;;;;;;6.00;3.05;;;;;;;;;;5067251;28;20332;-67
2022/09/23 06:21:01;;;;;;;4.90;3.33;;;;;;;;;;5076000;28;20032;-66
2022/09/23 06:23:27;;;;;;;5.60;3.00;;;;;;;;;;5076410;28;20509;-66
2022/09/23 06:25:53;;;;;;;9.27;3.10;;;;;;;;;;5076189;28;20025;-65
2022/09/23 06:28:19;;;;;;;7.18;3.20;;;;;;;;;;5076270;28;20028;-66
2022/09/23 06:30:45;;;;;;;8.20;4.68;;;;;;;;;;5076202;28;20399;-66
2022/09/23 06:33:10;;;;;;;8.15;3.30;;;;;;;;;;5060443;28;20049;-67
2022/09/23 06:35:36;;;;;;;11.32;3.58;;;;;;;;;;5056012;28;20033;-68
2022/09/23 06:38:04;;;;;;;7.43;2.85;;;;;;;;;;5056268;28;20036;-65
2022/09/23 06:40:30;;;;;;;5.97;3.05;;;;;;;;;;5067270;28;20025;-65
2022/09/23 06:43:00;;;;;;;4.50;2.60;;;;;;;;;;5075031;28;20063;-74
2022/09/23 06:45:27;;;;;;;5.20;2.75;;;;;;;;;;5074316;28;20483;-67
2022/09/23 06:47:57;;;;;;;7.45;2.70;;;;;;;;;;5075454;28;20107;-68
2022/09/23 06:50:25;;;;;;;9.75;3.08;;;;;;;;;;5075339;28;20024;-65
2022/09/23 06:52:54;;;;;;;4.80;3.15;;;;;;;;;;5075703;28;20432;-64
2022/09/23 06:55:26;;;;;;;9.65;4.03;;;;;;;;;;5067412;28;20033;-67
2022/09/23 06:57:52;;;;;;;5.82;2.92;;;;;;;;;;5061448;28;20907;-63
2022/09/23 07:00:19;;;;;;;5.18;3.00;;;;;;;;;;5062524;28;20483;-63
2022/09/23 07:02:45;;;;;;;6.10;3.35;;;;;;;;;;5056450;28;20085;-65
2022/09/23 07:05:12;;;;;;;7.28;3.20;;;;;;;;;;5069288;28;20031;-66
2022/09/23 07:07:38;;;;;;;4.72;2.60;;;;;;;;;;5074196;28;20040;-66
2022/09/23 07:10:05;;;;;;;9.95;2.85;;;;;;;;;;5074582;28;20383;-67
2022/09/23 07:12:32;;;;;;;10.07;2.75;;;;;;;;;;5067430;28;20107;-65
2022/09/23 07:14:58;;;;;;;14.98;3.28;;;;;;;;;;5071111;28;20373;-66
2022/09/23 07:17:24;;;;;;;8.43;2.67;;;;;;;;;;5067083;28;20025;-65
2022/09/23 07:19:50;;;;;;;14.90;3.20;;;;;;;;;;5053053;28;20472;-65
2022/09/23 07:22:17;;;;;;;3.03;2.20;;;;;;;;;;5060558;28;20043;-68
2022/09/23 07:24:45;;;;;;;8.70;2.53;;;;;;;;;;5065349;28;20028;-68
2022/09/23 07:27:18;;;;;;;5.10;2.38;;;;;;;;;;5069976;28;20051;-66
2022/09/23 07:29:46;;;;;;;6.88;3.00;;;;;;;;;;5056777;28;20080;-69
2022/09/23 07:32:12;;;;;;;4.03;2.45;;;;;;;;;;5061229;28;20062;-68
2022/09/23 07:34:38;;;;;;;8.23;3.10;;;;;;;;;;5059197;28;20076;-66
2022/09/23 07:37:04;;;;;;;8.60;2.83;;;;;;;;;;5066121;28;20060;-68
2022/09/23 07:39:30;;;;;;;9.85;4.03;;;;;;;;;;5072060;28;20024;-67
2022/09/23 07:41:56;;;;;;;10.23;3.20;;;;;;;;;;5063890;28;20083;-67
2022/09/23 07:44:22;;;;;;;7.13;2.70;;;;;;;;;;5057487;28;20112;-68
2022/09/23 07:46:48;;;;;;;7.38;2.60;;;;;;;;;;5066197;28;20120;-69
2022/09/23 07:49:14;;;;;;;6.38;3.50;;;;;;;;;;5071126;28;20074;-70
2022/09/23 07:51:45;;;;;;;9.65;2.97;;;;;;;;;;5058986;28;20079;-69
2022/09/23 07:54:13;;;;;;;9.10;2.70;;;;;;;;;;5057787;28;20108;-66
2022/09/23 07:56:40;;;;;;;7.07;2.08;;;;;;;;;;5063764;28;20021;-66
2022/09/23 07:59:09;;;;;;;6.95;2.72;;;;;;;;;;5062095;28;20037;-66
2022/09/23 08:01:44;;;;;;;5.90;2.25;;;;;;;;;;5063330;28;20032;-66
2022/09/23 08:04:13;;;;;;;4.75;2.38;;;;;;;;;;5073572;28;20032;-66
2022/09/23 08:06:41;;;;;;;3.75;2.22;;;;;;;;;;5057219;28;20029;-66
2022/09/23 08:09:08;;;;;;;4.15;2.42;;;;;;;;;;5054318;28;20418;-67
2022/09/23 08:11:35;;;;;;;11.23;2.10;;;;;;;;;;5053838;28;20123;-65
2022/09/23 08:14:01;;;;;;;6.57;2.30;;;;;;;;;;5054014;28;20025;-67
2022/09/23 08:16:27;;;;;;;6.63;2.33;;;;;;;;;;5066329;28;20024;-65
2022/09/23 08:18:53;;;;;;;5.20;2.63;;;;;;;;;;5055137;28;20037;-65
2022/09/23 08:21:20;;;;;;;3.78;2.10;;;;;;;;;;5073432;28;20128;-67
2022/09/23 08:23:46;;;;;;;4.93;2.10;;;;;;;;;;5073785;28;20372;-64
2022/09/23 08:26:12;;;;;;;6.10;2.20;;;;;;;;;;5073508;28;20025;-66
2022/09/23 08:28:38;;;;;;;5.57;2.00;;;;;;;;;;5073459;28;20081;-64
2022/09/23 08:31:04;;;;;;;3.75;2.30;;;;;;;;;;5072969;28;20024;-65
2022/09/23 08:33:31;;;;;;;6.18;2.55;;;;;;;;;;5071951;28;20047;-64
2022/09/23 08:36:00;;;;;;;3.08;1.90;;;;;;;;;;5072873;28;20055;-65
2022/09/23 08:38:27;;;;;;;5.63;2.03;;;;;;;;;;5058106;28;20065;-65
2022/09/23 08:41:03;;;;;;;6.57;2.38;;;;;;;;;;5052903;28;20031;-63
2022/09/23 08:43:32;;;;;;;5.82;2.17;;;;;;;;;;5052401;28;20033;-65
2022/09/23 08:46:04;;;;;;;3.90;1.80;;;;;;;;;;5067138;28;20028;-65
2022/09/23 08:48:42;;;;;;;3.10;1.90;;;;;;;;;;5072483;28;20028;-65
2022/09/23 08:51:13;;;;;;;3.72;2.22;;;;;;;;;;5072057;28;20039;-65
2022/09/23 08:53:41;;;;;;;3.15;1.70;;;;;;;;;;5073107;28;20029;-67
2022/09/23 08:56:22;;;;;;;2.60;1.80;;;;;;;;;;5073293;28;20541;-64
2022/09/23 08:59:28;;;;;;;7.05;2.45;;;;;;;;;;5072536;28;20032;-64
2022/09/23 09:01:59;;;;;;;4.75;2.10;;;;;;;;;;5072300;28;20156;-67
2022/09/23 09:04:34;;;;;;;10.90;2.30;;;;;;;;;;5073168;28;20040;-65
2022/09/23 09:07:05;;;;;;;5.43;1.92;;;;;;;;;;5072930;28;20078;-65
2022/09/23 09:09:38;;;;;;;6.05;2.17;;;;;;;;;;5071799;28;20552;-66
2022/09/23 09:12:14;;;;;;;3.55;1.90;;;;;;;;;;5072495;28;20491;-65
2022/09/23 09:14:58;;;;;;;6.13;2.00;;;;;;;;;;5072925;28;20360;-64
2022/09/23 09:17:47;;;;;;;7.03;2.03;;;;;;;;;;5072839;28;20037;-66
2022/09/23 09:20:33;;;;;;;7.68;2.00;;;;;;;;;;5057317;28;20551;-64
2022/09/23 09:23:11;;;;;;;3.95;2.08;;;;;;;;;;5058450;28;20529;-65
2022/09/23 09:25:43;;;;;;;4.03;2.17;;;;;;;;;;5071045;28;20036;-64
2022/09/23 09:28:23;;;;;;;4.60;2.40;;;;;;;;;;5071932;28;20039;-66
2022/09/23 09:30:53;;;;;;;3.08;1.75;;;;;;;;;;5071998;28;20025;-69
2022/09/23 09:33:27;;;;;;;3.78;1.58;;;;;;;;;;5065479;28;20036;-65
2022/09/23 09:35:58;;;;;;;3.63;1.40;;;;;;;;;;5072167;28;20064;-65
2022/09/23 09:38:26;;;;;;;2.75;1.65;;;;;;;;;;5072593;28;20033;-66
2022/09/23 09:40:57;;;;;;;5.22;2.05;;;;;;;;;;5072142;28;20112;-64
2022/09/23 09:43:23;;;;;;;3.60;1.92;;;;;;;;;;5071120;28;20043;-66
2022/09/23 09:45:55;;;;;;;4.20;1.52;;;;;;;;;;5069715;28;20456;-66
2022/09/23 09:48:33;;;;;;;2.40;1.50;;;;;;;;;;5071953;28;20032;-64
2022/09/23 09:51:21;;;;;;;2.83;1.70;;;;;;;;;;5072314;28;20052;-64
2022/09/23 09:53:50;;;;;;;6.40;1.65;;;;;;;;;;5072203;28;20036;-64
2022/09/23 09:56:19;;;;;;;2.08;1.33;;;;;;;;;;5072039;28;20071;-64
2022/09/23 09:58:53;;;;;;;4.57;2.00;;;;;;;;;;5071884;28;20024;-64
2022/09/23 10:01:19;;;;;;;3.97;2.10;;;;;;;;;;5072234;28;20081;-64
2022/09/23 10:03:46;;;;;;;2.00;1.63;;;;;;;;;;5072574;28;20032;-64
2022/09/23 10:06:33;;;;;;;3.67;2.13;;;;;;;;;;5072498;28;20032;-65
2022/09/23 10:09:07;;;;;;;2.38;1.65;;;;;;;;;;5072278;28;20032;-64
2022/09/23 10:11:33;;;;;;;3.58;1.77;;;;;;;;;;5072337;28;20032;-65
2022/09/23 10:14:01;;;;;;;2.97;1.65;;;;;;;;;;5069844;28;20467;-65
2022/09/23 10:16:33;;;;;;;3.55;1.60;;;;;;;;;;5069077;28;20123;-65
2022/09/23 10:19:00;;;;;;;3.10;1.60;;;;;;;;;;5071041;28;20039;-65
2022/09/23 10:21:33;;;;;;;3.47;1.73;;;;;;;;;;5068483;28;20403;-64
2022/09/23 10:24:01;;;;;;;2.50;1.50;;;;;;;;;;5053627;28;20495;-63
2022/09/23 10:26:31;;;;;;;3.85;1.80;;;;;;;;;;5058637;28;20025;-65
2022/09/23 10:28:58;;;;;;;2.42;1.85;;;;;;;;;;5088478;28;20161;-66
2022/09/23 10:31:27;;;;;;;3.33;2.17;;;;;;;;;;5063140;28;20035;-63
2022/09/23 10:34:14;;;;;;;6.57;2.05;;;;;;;;;;5071001;28;20056;-64
2022/09/23 10:36:40;;;;;;;2.10;1.50;;;;;;;;;;5071369;28;20041;-63
2022/09/23 10:48:47;;;;;;;2.08;1.48;;;;;;;;;;5071269;28;20036;-65
2022/09/23 10:51:35;;;;;;;7.03;1.70;;;;;;;;;;5070965;28;20040;-63
2022/09/23 10:54:10;;;;;;;4.03;1.90;;;;;;;;;;5071730;28;20025;-65
2022/09/23 10:56:41;;;;;;;4.10;1.80;;;;;;;;;;5073291;28;20033;-63
2022/09/23 10:59:13;;;;;;;3.05;1.40;;;;;;;;;;5075557;28;20029;-64
2022/09/23 11:02:00;;;;;;;4.00;1.85;;;;;;;;;;5073674;28;20056;-63
2022/09/23 11:04:38;;;;;;;2.80;1.42;;;;;;;;;;5074580;28;20037;-63
2022/09/23 11:07:19;;;;;;;4.40;1.50;;;;;;;;;;5074959;28;20051;-63
2022/09/23 11:10:19;;;;;;;3.03;1.35;;;;;;;;;;5075179;28;20033;-63
2022/09/23 11:13:03;;;;;;;3.45;2.40;;;;;;;;;;5073773;28;20047;-63
2022/09/23 11:15:43;;;;;;;6.63;2.45;;;;;;;;;;5074849;28;20036;-64
2022/09/23 11:18:18;;;;;;;3.22;1.30;;;;;;;;;;5074606;28;20037;-63
2022/09/23 11:21:01;;;;;;;3.15;1.50;;;;;;;;;;5074905;28;20438;-64
2022/09/23 11:23:56;;;;;;;2.00;1.50;;;;;;;;;;5075174;28;20033;-64
2022/09/23 11:26:27;;;;;;;3.47;1.60;;;;;;;;;;5057049;28;20032;-65
2022/09/23 11:29:09;;;;;;;2.88;1.40;;;;;;;;;;5069217;28;20041;-66
2022/09/23 11:31:40;;;;;;;3.08;1.13;;;;;;;;;;5053869;28;20036;-65
2022/09/23 11:34:42;;;;;;;2.13;1.35;;;;;;;;;;5054112;28;20052;-64
2022/09/23 11:37:18;;;;;;;1.88;1.23;;;;;;;;;;5053724;28;20404;-64
2022/09/23 11:40:04;;;;;;;5.93;1.65;;;;;;;;;;5055161;28;20472;-65
2022/09/23 11:42:35;;;;;;;2.92;1.20;;;;;;;;;;5054308;28;20045;-64
2022/09/23 11:45:13;;;;;;;4.18;1.85;;;;;;;;;;5054864;28;20369;-65
2022/09/23 11:47:53;;;;;;;4.97;1.20;;;;;;;;;;5054923;28;20037;-64
2022/09/23 11:50:31;;;;;;;1.73;1.17;;;;;;;;;;5054628;28;20029;-65
2022/09/23 11:53:06;;;;;;;3.42;1.38;;;;;;;;;;5069764;28;20044;-66
2022/09/23 11:55:43;;;;;;;3.95;1.60;;;;;;;;;;5055255;28;20037;-65
2022/09/23 11:58:17;;;;;;;1.70;1.10;;;;;;;;;;5054676;28;20064;-63
2022/09/23 12:01:18;;;;;;;1.27;1.10;;;;;;;;;;5053404;28;20041;-65
2022/09/23 12:04:25;;;;;;;3.60;1.30;;;;;;;;;;5053699;28;20510;-64
2022/09/23 12:06:59;;;;;;;1.55;1.10;;;;;;;;;;5051846;28;20407;-64
2022/09/23 12:09:33;;;;;;;1.88;1.30;;;;;;;;;;5054086;28;20045;-64
2022/09/23 12:12:20;;;;;;;4.95;1.60;;;;;;;;;;5054379;28;20541;-64
2022/09/23 12:14:55;;;;;;;5.20;1.25;;;;;;;;;;5053116;28;20037;-64
2022/09/23 12:17:51;;;;;;;4.88;1.30;;;;;;;;;;5054530;28;20029;-64
2022/09/23 12:21:02;;;;;;;3.13;1.42;;;;;;;;;;5054287;28;20037;-63
2022/09/23 12:23:55;;;;;;;4.68;1.60;;;;;;;;;;5054266;28;20385;-65
2022/09/23 12:26:24;;;;;;;2.00;1.30;;;;;;;;;;5053185;28;20037;-63
2022/09/23 12:28:53;;;;;;;4.43;1.45;;;;;;;;;;5054419;28;20043;-65
2022/09/23 12:31:29;;;;;;;6.30;2.25;;;;;;;;;;5054247;28;20114;-64
2022/09/23 12:33:58;;;;;;;2.65;1.40;;;;;;;;;;5054075;28;20103;-65
2022/09/23 12:36:34;;;;;;;3.72;1.63;;;;;;;;;;5053893;28;20043;-63
2022/09/23 12:39:06;;;;;;;3.33;1.65;;;;;;;;;;5053879;28;20128;-64
2022/09/23 12:41:38;;;;;;;4.97;1.77;;;;;;;;;;5053632;28;20395;-65
2022/09/23 12:44:07;;;;;;;5.32;1.50;;;;;;;;;;5053880;28;20068;-65
2022/09/23 12:46:33;;;;;;;3.40;1.20;;;;;;;;;;5053801;28;20067;-64
2022/09/23 12:49:01;;;;;;;1.60;1.10;;;;;;;;;;5054054;28;20029;-65
2022/09/23 12:51:29;;;;;;;1.85;1.27;;;;;;;;;;5053699;28;20031;-65
2022/09/23 12:54:01;;;;;;;2.75;1.30;;;;;;;;;;5068068;28;20043;-65
2022/09/23 12:56:35;;;;;;;2.08;1.30;;;;;;;;;;5073704;28;20115;-65
2022/09/23 12:59:16;;;;;;;4.72;1.48;;;;;;;;;;5073262;28;20036;-63
2022/09/23 13:01:43;;;;;;;3.15;1.30;;;;;;;;;;5070009;28;20051;-64
2022/09/23 13:07:22;;;;;;;3.78;1.40;;;;;;;;;;5073172;28;20491;-65
2022/09/23 13:09:50;;;;;;;4.90;1.40;;;;;;;;;;5073059;28;20032;-64
2022/09/23 13:12:27;;;;;;;3.50;1.92;;;;;;;;;;5073175;28;20028;-64
2022/09/23 13:14:59;;;;;;;2.03;1.40;;;;;;;;;;5072625;28;20032;-65
2022/09/23 13:17:31;;;;;;;2.50;1.40;;;;;;;;;;5072940;28;20510;-66
2022/09/23 13:20:05;;;;;;;3.42;1.50;;;;;;;;;;5072968;28;20036;-63
2022/09/23 13:23:04;;;;;;;2.03;1.80;;;;;;;;;;5071665;28;20043;-66
2022/09/23 13:25:34;;;;;;;2.30;1.10;;;;;;;;;;5072919;28;20029;-68
2022/09/23 13:28:01;;;;;;;2.05;1.10;;;;;;;;;;5067896;28;20025;-66
2022/09/23 13:30:27;;;;;;;3.70;1.30;;;;;;;;;;5052750;28;20041;-66
2022/09/23 13:33:12;;;;;;;1.73;1.23;;;;;;;;;;5064142;28;20020;-66
2022/09/23 13:35:49;;;;;;;2.03;1.23;;;;;;;;;;5071861;28;20074;-65
2022/09/23 13:38:25;;;;;;;2.15;1.63;;;;;;;;;;5071557;28;20036;-65
2022/09/23 13:41:11;;;;;;;3.80;1.50;;;;;;;;;;5071846;28;20036;-66
2022/09/23 13:43:41;;;;;;;3.65;1.65;;;;;;;;;;5071589;28;20045;-65
2022/09/23 13:46:28;;;;;;;3.72;1.20;;;;;;;;;;5050262;28;20452;-64
2022/09/23 13:48:55;;;;;;;3.35;1.20;;;;;;;;;;5051752;28;20403;-65
2022/09/23 13:51:30;;;;;;;2.17;1.20;;;;;;;;;;5060209;28;20023;-64
2022/09/23 13:53:59;;;;;;;2.90;1.30;;;;;;;;;;5071227;28;20032;-66
2022/09/23 13:56:28;;;;;;;2.47;1.40;;;;;;;;;;5064777;28;20021;-64
2022/09/23 13:59:09;;;;;;;2.60;1.50;;;;;;;;;;5053088;28;20414;-67
2022/09/23 14:01:35;;;;;;;3.88;1.25;;;;;;;;;;5052571;28;20116;-66
2022/09/23 14:04:01;;;;;;;2.78;1.25;;;;;;;;;;5052186;28;20021;-66
2022/09/23 14:06:30;;;;;;;3.63;1.42;;;;;;;;;;5051063;28;20025;-66
2022/09/23 14:08:59;;;;;;;3.60;1.27;;;;;;;;;;5051038;28;20025;-66
2022/09/23 14:11:32;;;;;;;2.55;1.40;;;;;;;;;;5051527;28;20041;-65
2022/09/23 14:14:05;;;;;;;2.38;1.10;;;;;;;;;;5051117;28;20033;-64
2022/09/23 14:16:31;;;;;;;;;;;;;;;;;;5053150;28;20033;-64
2022/09/23 14:18:58;;;;;;;5.40;1.77;;;;;;;;;;5052524;28;19919;-64
2022/09/23 14:21:34;;;;;;;1.85;1.20;;;;;;;;;;5052673;28;20421;-69
2022/09/23 14:24:17;;;;;;;5.03;2.03;;;;;;;;;;5052525;28;20388;-64
2022/09/23 14:26:52;;;;;;;5.83;1.40;;;;;;;;;;5071661;28;20028;-65
2022/09/23 14:29:22;;;;;;;1.50;1.30;;;;;;;;;;5071402;28;20472;-65
2022/09/23 14:31:55;;;;;;;2.35;1.35;;;;;;;;;;5074090;28;20036;-65
2022/09/23 14:34:45;;;;;;;2.08;1.35;;;;;;;;;;5075048;28;20048;-66
2022/09/23 14:40:08;;;;;;;3.65;1.30;;;;;;;;;;5075250;28;20348;-64
2022/09/23 14:42:40;;;;;;;2.90;1.50;;;;;;;;;;5075534;28;20033;-62
2022/09/23 14:45:11;;;;;;;3.95;1.70;;;;;;;;;;5075372;28;20044;-64
2022/09/23 14:47:41;;;;;;;6.60;1.50;;;;;;;;;;5074116;28;20082;-66
2022/09/23 14:52:59;;;;;;;5.50;1.95;;;;;;;;;;5075170;28;20063;-64
2022/09/23 14:55:27;;;;;;;3.17;1.60;;;;;;;;;;5074890;28;20131;-66
2022/09/23 14:58:02;;;;;;;3.67;2.13;;;;;;;;;;5074947;28;20035;-67
2022/09/23 15:00:28;;;;;;;2.53;1.48;;;;;;;;;;5074673;28;20060;-64
2022/09/23 15:03:02;;;;;;;2.85;1.50;;;;;;;;;;5074833;28;20105;-66
2022/09/23 15:05:44;;;;;;;2.75;1.38;;;;;;;;;;5075094;28;20483;-66
2022/09/23 15:08:21;;;;;;;5.78;1.67;;;;;;;;;;5066763;28;20093;-66
2022/09/23 15:10:48;;;;;;;3.47;1.55;;;;;;;;;;5056592;28;20037;-64
2022/09/23 15:13:25;;;;;;;4.15;1.55;;;;;;;;;;5055058;28;20036;-64
2022/09/23 15:15:52;;;;;;;2.67;1.48;;;;;;;;;;5054750;28;20111;-64
2022/09/23 15:18:35;;;;;;;6.70;1.75;;;;;;;;;;5054474;28;20379;-64
2022/09/23 15:21:08;;;;;;;2.13;1.50;;;;;;;;;;5054296;28;20499;-66
2022/09/23 15:23:34;;;;;;;2.72;1.60;;;;;;;;;;5054421;28;20143;-62
2022/09/23 15:26:43;;;;;;;2.00;1.40;;;;;;;;;;5054471;28;20068;-65
2022/09/23 15:29:09;;;;;;;2.70;1.60;;;;;;;;;;5053359;28;20090;-67
2022/09/23 15:31:36;;;;;;;6.82;2.35;;;;;;;;;;5054443;28;20033;-65
2022/09/23 15:34:04;;;;;;;3.10;1.60;;;;;;;;;;5052435;28;20037;-65
2022/09/23 15:36:30;;;;;;;2.15;1.55;;;;;;;;;;5051609;28;20563;-64
2022/09/23 15:39:05;;;;;;;2.03;1.52;;;;;;;;;;5053485;28;20384;-63